sensor_id;sensor_type;location;lat;lon;timestamp;pressure;altitude;pressure_sealevel;temperature;humidity
23363;BME280;11853;48.080;11.960;2023-01-28T00:01:22;95069.94;;;1.35;100.00
23363;BME280;11853;48.080;11.960;2023-01-28T00:03:51;95075.19;;;1.35;100.00
23363;BME280;11853;48.080;11.960;2023-01-28T00:06:17;95076.94;;;1.35;100.00
23363;BME280;11853;48.080;11.960;2023-01-28T00:08:44;95076.00;;;1.36;100.00
23363;BME280;11853;48.080;11.960;2023-01-28T00:11:11;95081.41;;;1.33;100.00
23363;BME280;11853;48.080;11.960;2023-01-28T00:13:38;95082.38;;;1.32;100.00
23363;BME280;11853;48.080;11.960;2023-01-28T00:16:07;95076.28;;;1.31;100.00
23363;BME280;11853;48.080;11.960;2023-01-28T00:18:33;95071.91;;;1.32;100.00
23363;BME280;11853;48.080;11.960;2023-01-28T00:21:19;95073.59;;;1.33;100.00
23363;BME280;11853;48.080;11.960;2023-01-28T00:23:53;95078.81;;;1.33;100.00
23363;BME280;11853;48.080;11.960;2023-01-28T00:26:20;95069.63;;;1.26;100.00
23363;BME280;11853;48.080;11.960;2023-01-28T00:28:46;95071.34;;;1.27;100.00
23363;BME280;11853;48.080;11.960;2023-01-28T00:31:16;95075.53;;;1.29;100.00
23363;BME280;11853;48.080;11.960;2023-01-28T00:33:44;95077.31;;;1.29;100.00
23363;BME280;11853;48.080;11.960;2023-01-28T00:36:10;95067.38;;;1.20;100.00
23363;BME280;11853;48.080;11.960;2023-01-28T00:38:37;95078.69;;;1.20;100.00
23363;BME280;11853;48.080;11.960;2023-01-28T00:41:15;95081.97;;;1.24;100.00
23363;BME280;11853;48.080;11.960;2023-01-28T00:43:42;95067.50;;;1.18;100.00
23363;BME280;11853;48.080;11.960;2023-01-28T00:46:10;95076.75;;;1.24;100.00
23363;BME280;11853;48.080;11.960;2023-01-28T00:48:38;95072.16;;;1.27;100.00
23363;BME280;11853;48.080;11.960;2023-01-28T00:51:05;95067.56;;;1.17;100.00
23363;BME280;11853;48.080;11.960;2023-01-28T00:53:32;95077.75;;;1.21;100.00
23363;BME280;11853;48.080;11.960;2023-01-28T00:55:59;95077.94;;;1.18;100.00
23363;BME280;11853;48.080;11.960;2023-01-28T00:58:25;95072.72;;;1.18;100.00
23363;BME280;11853;48.080;11.960;2023-01-28T01:00:51;95078.59;;;1.22;100.00
23363;BME280;11853;48.080;11.960;2023-01-28T01:03:18;95074.41;;;1.19;100.00
23363;BME280;11853;48.080;11.960;2023-01-28T01:05:45;95078.78;;;1.19;100.00
23363;BME280;11853;48.080;11.960;2023-01-28T01:08:11;95084.19;;;1.16;100.00
23363;BME280;11853;48.080;11.960;2023-01-28T01:10:39;95083.63;;;1.10;100.00
23363;BME280;11853;48.080;11.960;2023-01-28T01:13:07;95084.56;;;1.09;100.00
23363;BME280;11853;48.080;11.960;2023-01-28T01:15:32;95077.16;;;1.02;100.00
23363;BME280;11853;48.080;11.960;2023-01-28T01:17:59;95075.91;;;0.93;100.00
23363;BME280;11853;48.080;11.960;2023-01-28T01:20:27;95076.41;;;1.00;100.00
23363;BME280;11853;48.080;11.960;2023-01-28T01:22:55;95079.47;;;0.92;100.00
23363;BME280;11853;48.080;11.960;2023-01-28T01:25:21;95079.66;;;0.89;100.00
23363;BME280;11853;48.080;11.960;2023-01-28T01:27:48;95068.28;;;0.90;100.00
23363;BME280;11853;48.080;11.960;2023-01-28T01:30:14;95079.28;;;0.95;100.00
23363;BME280;11853;48.080;11.960;2023-01-28T01:32:40;95087.13;;;0.95;100.00
23363;BME280;11853;48.080;11.960;2023-01-28T01:35:08;95079.94;;;0.99;100.00
23363;BME280;11853;48.080;11.960;2023-01-28T01:37:35;95092.16;;;0.98;100.00
23363;BME280;11853;48.080;11.960;2023-01-28T01:40:01;95085.59;;;0.91;100.00
23363;BME280;11853;48.080;11.960;2023-01-28T01:42:29;95088.41;;;0.88;100.00
23363;BME280;11853;48.080;11.960;2023-01-28T01:45:03;95095.41;;;0.87;100.00
23363;BME280;11853;48.080;11.960;2023-01-28T01:49:57;95098.25;;;0.83;100.00
23363;BME280;11853;48.080;11.960;2023-01-28T01:52:30;95099.63;;;0.74;100.00
23363;BME280;11853;48.080;11.960;2023-01-28T01:55:00;95101.81;;;0.82;100.00
23363;BME280;11853;48.080;11.960;2023-01-28T01:57:30;95104.25;;;0.85;100.00
23363;BME280;11853;48.080;11.960;2023-01-28T01:59:57;95105.00;;;0.87;100.00
23363;BME280;11853;48.080;11.960;2023-01-28T02:02:42;95102.66;;;0.82;100.00
23363;BME280;11853;48.080;11.960;2023-01-28T02:05:10;95110.06;;;0.90;100.00
23363;BME280;11853;48.080;11.960;2023-01-28T02:07:36;95110.22;;;0.87;100.00
23363;BME280;11853;48.080;11.960;2023-01-28T02:10:04;95105.38;;;0.81;100.00
23363;BME280;11853;48.080;11.960;2023-01-28T02:12:35;95108.81;;;0.81;100.00
23363;BME280;11853;48.080;11.960;2023-01-28T02:15:15;95113.38;;;0.78;100.00
23363;BME280;11853;48.080;11.960;2023-01-28T02:17:42;95112.34;;;0.80;100.00
23363;BME280;11853;48.080;11.960;2023-01-28T02:20:10;95107.13;;;0.80;100.00
23363;BME280;11853;48.080;11.960;2023-01-28T02:25:50;95111.25;;;0.68;100.00
23363;BME280;11853;48.080;11.960;2023-01-28T02:29:18;95112.19;;;0.67;100.00
23363;BME280;11853;48.080;11.960;2023-01-28T02:31:44;95117.53;;;0.66;100.00
23363;BME280;11853;48.080;11.960;2023-01-28T02:34:28;95116.16;;;0.75;100.00
23363;BME280;11853;48.080;11.960;2023-01-28T02:37:13;95112.25;;;0.82;100.00
23363;BME280;11853;48.080;11.960;2023-01-28T02:39:49;95112.56;;;0.92;100.00
23363;BME280;11853;48.080;11.960;2023-01-28T02:42:27;95106.91;;;0.99;100.00
23363;BME280;11853;48.080;11.960;2023-01-28T02:44:54;95117.63;;;0.95;100.00
23363;BME280;11853;48.080;11.960;2023-01-28T02:47:20;95114.34;;;0.91;100.00
23363;BME280;11853;48.080;11.960;2023-01-28T02:50:13;95111.91;;;0.88;100.00
23363;BME280;11853;48.080;11.960;2023-01-28T02:53:06;95118.66;;;0.92;100.00
23363;BME280;11853;48.080;11.960;2023-01-28T02:58:36;95126.19;;;0.97;100.00
23363;BME280;11853;48.080;11.960;2023-01-28T03:01:33;95128.63;;;1.00;100.00
23363;BME280;11853;48.080;11.960;2023-01-28T03:04:12;95124.16;;;1.02;100.00
23363;BME280;11853;48.080;11.960;2023-01-28T03:06:44;95119.06;;;1.00;100.00
23363;BME280;11853;48.080;11.960;2023-01-28T03:09:11;95132.94;;;1.01;100.00
23363;BME280;11853;48.080;11.960;2023-01-28T03:11:57;95119.19;;;0.97;100.00
23363;BME280;11853;48.080;11.960;2023-01-28T03:14:48;95124.00;;;1.05;100.00
23363;BME280;11853;48.080;11.960;2023-01-28T03:17:41;95137.06;;;1.05;100.00
23363;BME280;11853;48.080;11.960;2023-01-28T03:20:36;95129.31;;;1.03;100.00
23363;BME280;11853;48.080;11.960;2023-01-28T03:23:27;95126.72;;;1.03;100.00
23363;BME280;11853;48.080;11.960;2023-01-28T03:26:13;95131.25;;;1.00;100.00
23363;BME280;11853;48.080;11.960;2023-01-28T03:29:05;95133.97;;;0.98;100.00
23363;BME280;11853;48.080;11.960;2023-01-28T03:31:50;95139.78;;;1.03;100.00
23363;BME280;11853;48.080;11.960;2023-01-28T03:34:36;95136.56;;;0.98;100.00
23363;BME280;11853;48.080;11.960;2023-01-28T03:37:21;95139.06;;;1.00;100.00
23363;BME280;11853;48.080;11.960;2023-01-28T03:39:47;95136.47;;;1.00;100.00
23363;BME280;11853;48.080;11.960;2023-01-28T03:42:14;95141.88;;;0.97;100.00
23363;BME280;11853;48.080;11.960;2023-01-28T03:44:42;95139.25;;;0.97;100.00
23363;BME280;11853;48.080;11.960;2023-01-28T03:47:34;95141.88;;;0.97;100.00
23363;BME280;11853;48.080;11.960;2023-01-28T03:50:00;95140.03;;;0.99;100.00
23363;BME280;11853;48.080;11.960;2023-01-28T03:52:29;95142.81;;;0.96;100.00
23363;BME280;11853;48.080;11.960;2023-01-28T03:54:56;95138.78;;;0.90;100.00
23363;BME280;11853;48.080;11.960;2023-01-28T03:57:25;95135.16;;;0.93;100.00
23363;BME280;11853;48.080;11.960;2023-01-28T03:59:51;95139.59;;;0.90;100.00
23363;BME280;11853;48.080;11.960;2023-01-28T04:02:19;95135.81;;;0.96;100.00
23363;BME280;11853;48.080;11.960;2023-01-28T04:04:46;95139.44;;;0.94;100.00
23363;BME280;11853;48.080;11.960;2023-01-28T04:07:12;95140.38;;;0.93;100.00
23363;BME280;11853;48.080;11.960;2023-01-28T04:09:40;95140.03;;;0.99;100.00
23363;BME280;11853;48.080;11.960;2023-01-28T04:12:08;95138.34;;;0.98;100.00
23363;BME280;11853;48.080;11.960;2023-01-28T04:14:34;95144.31;;;1.00;100.00
23363;BME280;11853;48.080;11.960;2023-01-28T04:17:00;95141.50;;;1.03;100.00
23363;BME280;11853;48.080;11.960;2023-01-28T04:19:26;95145.06;;;1.02;100.00
23363;BME280;11853;48.080;11.960;2023-01-28T04:21:52;95145.72;;;1.05;100.00
23363;BME280;11853;48.080;11.960;2023-01-28T04:24:19;95147.59;;;1.03;100.00
23363;BME280;11853;48.080;11.960;2023-01-28T04:26:45;95158.06;;;1.03;100.00
23363;BME280;11853;48.080;11.960;2023-01-28T04:29:12;95151.31;;;0.99;100.00
23363;BME280;11853;48.080;11.960;2023-01-28T04:31:37;95153.00;;;1.00;100.00
23363;BME280;11853;48.080;11.960;2023-01-28T04:34:04;95157.19;;;1.03;100.00
23363;BME280;11853;48.080;11.960;2023-01-28T04:36:30;95164.38;;;0.99;100.00
23363;BME280;11853;48.080;11.960;2023-01-28T04:38:57;95163.28;;;1.03;100.00
23363;BME280;11853;48.080;11.960;2023-01-28T04:41:23;95169.22;;;1.05;100.00
23363;BME280;11853;48.080;11.960;2023-01-28T04:43:49;95168.03;;;1.11;100.00
23363;BME280;11853;48.080;11.960;2023-01-28T04:46:15;95177.06;;;1.05;100.00
23363;BME280;11853;48.080;11.960;2023-01-28T04:48:41;95169.34;;;1.04;100.00
23363;BME280;11853;48.080;11.960;2023-01-28T04:51:07;95176.75;;;0.96;100.00
23363;BME280;11853;48.080;11.960;2023-01-28T04:53:34;95174.41;;;0.91;100.00
23363;BME280;11853;48.080;11.960;2023-01-28T04:55:59;95176.75;;;0.96;100.00
23363;BME280;11853;48.080;11.960;2023-01-28T04:58:25;95179.44;;;0.94;100.00
23363;BME280;11853;48.080;11.960;2023-01-28T05:00:55;95181.72;;;1.00;100.00
23363;BME280;11853;48.080;11.960;2023-01-28T05:03:23;95185.09;;;1.02;100.00
23363;BME280;11853;48.080;11.960;2023-01-28T05:05:49;95185.34;;;0.98;100.00
23363;BME280;11853;48.080;11.960;2023-01-28T05:08:15;95184.34;;;1.00;100.00
23363;BME280;11853;48.080;11.960;2023-01-28T05:10:41;95185.44;;;0.96;100.00
23363;BME280;11853;48.080;11.960;2023-01-28T05:13:07;95186.03;;;1.01;100.00
23363;BME280;11853;48.080;11.960;2023-01-28T05:15:33;95188.16;;;0.95;100.00
23363;BME280;11853;48.080;11.960;2023-01-28T05:17:58;95193.44;;;0.93;100.00
23363;BME280;11853;48.080;11.960;2023-01-28T05:20:24;95198.50;;;0.96;100.00
23363;BME280;11853;48.080;11.960;2023-01-28T05:22:51;95189.63;;;0.99;100.00
23363;BME280;11853;48.080;11.960;2023-01-28T05:25:17;95189.41;;;1.03;100.00
23363;BME280;11853;48.080;11.960;2023-01-28T05:27:51;95194.63;;;1.03;100.00
23363;BME280;11853;48.080;11.960;2023-01-28T05:30:18;95197.22;;;1.03;100.00
23363;BME280;11853;48.080;11.960;2023-01-28T05:32:44;95194.50;;;1.05;100.00
23363;BME280;11853;48.080;11.960;2023-01-28T05:35:11;95204.72;;;1.09;100.00
23363;BME280;11853;48.080;11.960;2023-01-28T05:37:36;95201.34;;;1.07;100.00
23363;BME280;11853;48.080;11.960;2023-01-28T05:40:03;95205.91;;;1.04;100.00
23363;BME280;11853;48.080;11.960;2023-01-28T05:42:29;95215.50;;;1.03;100.00
23363;BME280;11853;48.080;11.960;2023-01-28T05:44:55;95211.84;;;1.06;100.00
23363;BME280;11853;48.080;11.960;2023-01-28T05:47:20;95216.19;;;1.07;100.00
23363;BME280;11853;48.080;11.960;2023-01-28T05:49:46;95208.34;;;1.07;100.00
23363;BME280;11853;48.080;11.960;2023-01-28T05:52:12;95214.31;;;1.09;100.00
23363;BME280;11853;48.080;11.960;2023-01-28T05:54:38;95220.28;;;1.11;100.00
23363;BME280;11853;48.080;11.960;2023-01-28T05:57:03;95215.06;;;1.11;100.00
23363;BME280;11853;48.080;11.960;2023-01-28T05:59:29;95216.75;;;1.12;100.00
23363;BME280;11853;48.080;11.960;2023-01-28T06:01:55;95227.47;;;1.07;100.00
23363;BME280;11853;48.080;11.960;2023-01-28T06:04:21;95217.38;;;1.01;100.00
23363;BME280;11853;48.080;11.960;2023-01-28T06:06:47;95222.59;;;1.01;100.00
23363;BME280;11853;48.080;11.960;2023-01-28T06:09:12;95229.66;;;0.99;100.00
23363;BME280;11853;48.080;11.960;2023-01-28T06:11:39;95229.66;;;0.99;100.00
23363;BME280;11853;48.080;11.960;2023-01-28T06:14:04;95233.22;;;0.98;100.00
23363;BME280;11853;48.080;11.960;2023-01-28T06:16:30;95240.28;;;0.96;100.00
23363;BME280;11853;48.080;11.960;2023-01-28T06:18:56;95238.78;;;0.92;100.00
23363;BME280;11853;48.080;11.960;2023-01-28T06:21:22;95244.66;;;0.96;100.00
23363;BME280;11853;48.080;11.960;2023-01-28T06:23:47;95234.88;;;0.99;100.00
23363;BME280;11853;48.080;11.960;2023-01-28T06:26:13;95239.09;;;1.02;100.00
23363;BME280;11853;48.080;11.960;2023-01-28T06:28:39;95243.38;;;1.03;100.00
23363;BME280;11853;48.080;11.960;2023-01-28T06:31:04;95253.75;;;1.04;100.00
23363;BME280;11853;48.080;11.960;2023-01-28T06:33:32;95246.09;;;1.01;100.00
23363;BME280;11853;48.080;11.960;2023-01-28T06:36:01;95246.34;;;0.97;100.00
23363;BME280;11853;48.080;11.960;2023-01-28T06:38:28;95258.78;;;0.92;100.00
23363;BME280;11853;48.080;11.960;2023-01-28T06:40:54;95249.22;;;0.92;100.00
23363;BME280;11853;48.080;11.960;2023-01-28T06:43:21;95251.56;;;0.97;100.00
23363;BME280;11853;48.080;11.960;2023-01-28T06:45:59;95266.31;;;0.98;100.00
23363;BME280;11853;48.080;11.960;2023-01-28T06:48:26;95255.78;;;0.99;100.00
23363;BME280;11853;48.080;11.960;2023-01-28T06:50:52;95260.34;;;0.96;100.00
23363;BME280;11853;48.080;11.960;2023-01-28T06:53:19;95262.78;;;0.99;100.00
23363;BME280;11853;48.080;11.960;2023-01-28T06:55:45;95263.53;;;1.01;100.00
23363;BME280;11853;48.080;11.960;2023-01-28T06:58:11;95259.41;;;0.97;100.00
23363;BME280;11853;48.080;11.960;2023-01-28T07:00:37;95263.00;;;0.94;100.00
23363;BME280;11853;48.080;11.960;2023-01-28T07:03:03;95262.78;;;0.99;100.00
23363;BME280;11853;48.080;11.960;2023-01-28T07:05:29;95265.72;;;0.93;100.00
23363;BME280;11853;48.080;11.960;2023-01-28T07:07:55;95264.53;;;0.98;100.00
23363;BME280;11853;48.080;11.960;2023-01-28T07:10:21;95272.22;;;1.01;100.00
23363;BME280;11853;48.080;11.960;2023-01-28T07:12:47;95281.88;;;0.99;100.00
23363;BME280;11853;48.080;11.960;2023-01-28T07:15:13;95282.16;;;0.95;100.00
23363;BME280;11853;48.080;11.960;2023-01-28T07:17:42;95279.44;;;0.96;100.00
23363;BME280;11853;48.080;11.960;2023-01-28T07:20:11;95283.91;;;0.94;100.00
23363;BME280;11853;48.080;11.960;2023-01-28T07:22:39;95284.91;;;0.92;100.00
23363;BME280;11853;48.080;11.960;2023-01-28T07:25:06;95282.41;;;0.90;100.00
23363;BME280;11853;48.080;11.960;2023-01-28T07:27:32;95288.22;;;0.95;100.00
23363;BME280;11853;48.080;11.960;2023-01-28T07:29:58;95284.59;;;0.98;100.00
23363;BME280;11853;48.080;11.960;2023-01-28T07:32:23;95287.13;;;0.99;100.00
23363;BME280;11853;48.080;11.960;2023-01-28T07:34:54;95296.47;;;1.03;100.00
23363;BME280;11853;48.080;11.960;2023-01-28T07:37:20;95298.94;;;1.06;100.00
23363;BME280;11853;48.080;11.960;2023-01-28T07:39:46;95291.34;;;1.02;100.00
23363;BME280;11853;48.080;11.960;2023-01-28T07:42:12;95297.66;;;0.98;100.00
23363;BME280;11853;48.080;11.960;2023-01-28T07:44:38;95295.34;;;0.92;100.00
23363;BME280;11853;48.080;11.960;2023-01-28T07:47:04;95300.16;;;0.99;100.00
23363;BME280;11853;48.080;11.960;2023-01-28T07:49:32;95304.16;;;1.06;100.00
23363;BME280;11853;48.080;11.960;2023-01-28T07:51:57;95306.66;;;1.08;100.00
23363;BME280;11853;48.080;11.960;2023-01-28T07:54:23;95311.13;;;1.06;100.00
23363;BME280;11853;48.080;11.960;2023-01-28T07:56:49;95303.56;;;1.01;100.00
23363;BME280;11853;48.080;11.960;2023-01-28T07:59:14;95315.34;;;1.08;100.00
23363;BME280;11853;48.080;11.960;2023-01-28T08:01:40;95323.94;;;1.10;100.00
23363;BME280;11853;48.080;11.960;2023-01-28T08:04:06;95317.09;;;1.08;100.00
23363;BME280;11853;48.080;11.960;2023-01-28T08:06:31;95324.94;;;1.08;100.00
23363;BME280;11853;48.080;11.960;2023-01-28T08:09:05;95336.84;;;1.13;100.00
23363;BME280;11853;48.080;11.960;2023-01-28T08:11:33;95329.94;;;1.12;100.00
23363;BME280;11853;48.080;11.960;2023-01-28T08:14:00;95338.53;;;1.15;100.00
23363;BME280;11853;48.080;11.960;2023-01-28T08:16:26;95333.97;;;1.02;100.00
23363;BME280;11853;48.080;11.960;2023-01-28T08:18:53;95339.19;;;1.02;100.00
23363;BME280;11853;48.080;11.960;2023-01-28T08:21:19;95344.25;;;1.05;100.00
23363;BME280;11853;48.080;11.960;2023-01-28T08:23:45;95342.22;;;1.10;100.00
23363;BME280;11853;48.080;11.960;2023-01-28T08:26:11;95354.88;;;1.18;100.00
23363;BME280;11853;48.080;11.960;2023-01-28T08:28:36;95353.28;;;1.16;100.00
23363;BME280;11853;48.080;11.960;2023-01-28T08:31:02;95347.28;;;1.13;100.00
23363;BME280;11853;48.080;11.960;2023-01-28T08:33:28;95363.72;;;1.16;100.00
23363;BME280;11853;48.080;11.960;2023-01-28T08:35:53;95357.56;;;1.17;100.00
23363;BME280;11853;48.080;11.960;2023-01-28T08:38:20;95367.09;;;1.18;100.00
23363;BME280;11853;48.080;11.960;2023-01-28T08:40:47;95360.94;;;1.19;100.00
23363;BME280;11853;48.080;11.960;2023-01-28T08:43:15;95359.94;;;1.21;100.00
23363;BME280;11853;48.080;11.960;2023-01-28T08:45:41;95361.88;;;1.18;100.00
23363;BME280;11853;48.080;11.960;2023-01-28T08:48:10;95361.28;;;1.12;100.00
23363;BME280;11853;48.080;11.960;2023-01-28T08:50:37;95354.78;;;1.20;100.00
23363;BME280;11853;48.080;11.960;2023-01-28T08:53:09;95348.81;;;1.18;100.00
23363;BME280;11853;48.080;11.960;2023-01-28T08:55:36;95347.03;;;1.18;100.00
23363;BME280;11853;48.080;11.960;2023-01-28T08:58:03;95366.75;;;1.40;100.00
23363;BME280;11853;48.080;11.960;2023-01-28T09:00:33;95357.56;;;1.48;100.00
23363;BME280;11853;48.080;11.960;2023-01-28T09:02:59;95362.72;;;1.50;100.00
23363;BME280;11853;48.080;11.960;2023-01-28T09:05:25;95362.44;;;1.54;100.00
23363;BME280;11853;48.080;11.960;2023-01-28T09:07:50;95366.78;;;1.55;100.00
23363;BME280;11853;48.080;11.960;2023-01-28T09:10:16;95369.81;;;1.64;100.00
23363;BME280;11853;48.080;11.960;2023-01-28T09:12:45;95374.84;;;1.67;100.00
23363;BME280;11853;48.080;11.960;2023-01-28T09:15:12;95383.72;;;1.64;100.00
23363;BME280;11853;48.080;11.960;2023-01-28T09:17:38;95375.59;;;1.69;100.00
23363;BME280;11853;48.080;11.960;2023-01-28T09:20:05;95375.38;;;1.57;100.00
23363;BME280;11853;48.080;11.960;2023-01-28T09:22:32;95378.38;;;1.66;100.00
23363;BME280;11853;48.080;11.960;2023-01-28T09:24:58;95378.38;;;1.66;100.00
23363;BME280;11853;48.080;11.960;2023-01-28T09:27:25;95378.06;;;1.72;100.00
23363;BME280;11853;48.080;11.960;2023-01-28T09:29:50;95369.69;;;1.81;100.00
23363;BME280;11853;48.080;11.960;2023-01-28T09:32:16;95378.03;;;1.88;100.00
23363;BME280;11853;48.080;11.960;2023-01-28T09:34:41;95363.94;;;1.90;100.00
23363;BME280;11853;48.080;11.960;2023-01-28T09:37:09;95373.97;;;1.98;100.00
23363;BME280;11853;48.080;11.960;2023-01-28T09:39:36;95369.03;;;2.08;100.00
23363;BME280;11853;48.080;11.960;2023-01-28T09:45:32;95376.16;;;2.20;100.00
23363;BME280;11853;48.080;11.960;2023-01-28T09:48:02;95364.78;;;2.21;100.00
23363;BME280;11853;48.080;11.960;2023-01-28T09:50:35;95371.25;;;2.30;100.00
23363;BME280;11853;48.080;11.960;2023-01-28T09:53:17;95374.72;;;2.30;99.50
23363;BME280;11853;48.080;11.960;2023-01-28T09:55:54;95368.53;;;2.31;99.68
23363;BME280;11853;48.080;11.960;2023-01-28T09:58:20;95375.47;;;2.32;100.00
23363;BME280;11853;48.080;11.960;2023-01-28T10:11:45;95358.25;;;2.28;95.58
23363;BME280;11853;48.080;11.960;2023-01-28T10:19:31;95354.81;;;2.42;96.76
23363;BME280;11853;48.080;11.960;2023-01-28T10:22:02;95354.56;;;2.46;96.32
23363;BME280;11853;48.080;11.960;2023-01-28T10:24:34;95354.84;;;2.56;96.38
23363;BME280;11853;48.080;11.960;2023-01-28T10:27:02;95360.09;;;2.70;95.01
23363;BME280;11853;48.080;11.960;2023-01-28T10:29:34;95354.97;;;2.83;94.28
23363;BME280;11853;48.080;11.960;2023-01-28T10:34:44;95363.00;;;2.80;94.35
23363;BME280;11853;48.080;11.960;2023-01-28T10:37:14;95351.22;;;2.87;93.68
23363;BME280;11853;48.080;11.960;2023-01-28T10:39:40;95356.47;;;2.87;92.78
23363;BME280;11853;48.080;11.960;2023-01-28T10:44:51;95358.50;;;2.97;91.33
23363;BME280;11853;48.080;11.960;2023-01-28T10:47:28;95355.50;;;3.03;91.50
23363;BME280;11853;48.080;11.960;2023-01-28T10:49:57;95353.84;;;3.02;91.13
23363;BME280;11853;48.080;11.960;2023-01-28T10:52:26;95358.06;;;3.04;91.65
23363;BME280;11853;48.080;11.960;2023-01-28T10:55:04;95344.75;;;3.07;91.70
23363;BME280;11853;48.080;11.960;2023-01-28T10:57:32;95347.19;;;3.10;90.93
23363;BME280;11853;48.080;11.960;2023-01-28T11:00:22;95345.78;;;3.19;91.81
23363;BME280;11853;48.080;11.960;2023-01-28T11:02:49;95352.31;;;3.26;92.18
23363;BME280;11853;48.080;11.960;2023-01-28T11:05:17;95350.75;;;3.24;90.97
23363;BME280;11853;48.080;11.960;2023-01-28T11:07:45;95344.28;;;3.29;91.93
23363;BME280;11853;48.080;11.960;2023-01-28T11:12:58;95341.81;;;3.41;89.26
23363;BME280;11853;48.080;11.960;2023-01-28T11:15:24;95345.47;;;3.38;89.62
23363;BME280;11853;48.080;11.960;2023-01-28T11:17:58;95345.91;;;3.45;89.42
23363;BME280;11853;48.080;11.960;2023-01-28T11:20:27;95340.91;;;3.54;90.30
23363;BME280;11853;48.080;11.960;2023-01-28T11:22:54;95341.28;;;3.63;88.76
23363;BME280;11853;48.080;11.960;2023-01-28T11:27:57;95344.41;;;3.82;86.96
23363;BME280;11853;48.080;11.960;2023-01-28T11:30:29;95343.56;;;3.81;88.39
23363;BME280;11853;48.080;11.960;2023-01-28T11:33:11;95351.13;;;3.86;88.48
23363;BME280;11853;48.080;11.960;2023-01-28T11:35:39;95351.84;;;3.75;88.17
23363;BME280;11853;48.080;11.960;2023-01-28T11:38:17;95349.00;;;3.78;89.17
23363;BME280;11853;48.080;11.960;2023-01-28T11:40:51;95349.72;;;3.80;87.96
23363;BME280;11853;48.080;11.960;2023-01-28T11:43:21;95352.56;;;3.77;87.69
23363;BME280;11853;48.080;11.960;2023-01-28T11:54:52;95349.97;;;3.63;89.70
23363;BME280;11853;48.080;11.960;2023-01-28T12:08:19;95351.56;;;3.38;90.51
23363;BME280;11853;48.080;11.960;2023-01-28T12:11:06;95346.94;;;3.42;90.87
23363;BME280;11853;48.080;11.960;2023-01-28T12:14:04;95350.22;;;3.46;90.16
23363;BME280;11853;48.080;11.960;2023-01-28T12:19:15;95359.03;;;3.45;90.10
23363;BME280;11853;48.080;11.960;2023-01-28T12:22:12;95342.53;;;3.43;90.06
23363;BME280;11853;48.080;11.960;2023-01-28T12:25:06;95341.91;;;3.39;90.09
23363;BME280;11853;48.080;11.960;2023-01-28T12:30:18;95350.59;;;3.39;91.04
23363;BME280;11853;48.080;11.960;2023-01-28T12:41:11;95351.25;;;3.29;92.47
23363;BME280;11853;48.080;11.960;2023-01-28T12:44:01;95352.13;;;3.29;91.64
23363;BME280;11853;48.080;11.960;2023-01-28T12:49:57;95353.25;;;3.25;93.75
23363;BME280;11853;48.080;11.960;2023-01-28T12:52:19;95356.06;;;3.22;93.18
23363;BME280;11853;48.080;11.960;2023-01-28T12:55:05;95353.88;;;3.29;93.79
23363;BME280;11853;48.080;11.960;2023-01-28T12:57:37;95358.22;;;3.30;92.48
23363;BME280;11853;48.080;11.960;2023-01-28T13:05:45;95358.84;;;3.33;92.87
23363;BME280;11853;48.080;11.960;2023-01-28T13:08:18;95352.47;;;3.37;92.75
23363;BME280;11853;48.080;11.960;2023-01-28T13:10:47;95358.66;;;3.36;91.15
23363;BME280;11853;48.080;11.960;2023-01-28T13:15:45;95357.00;;;3.35;92.51
23363;BME280;11853;48.080;11.960;2023-01-28T13:18:30;95359.97;;;3.44;92.85
23363;BME280;11853;48.080;11.960;2023-01-28T13:21:01;95360.81;;;3.44;93.05
23363;BME280;11853;48.080;11.960;2023-01-28T13:26:24;95365.47;;;3.53;92.83
23363;BME280;11853;48.080;11.960;2023-01-28T13:28:52;95367.81;;;3.58;91.13
23363;BME280;11853;48.080;11.960;2023-01-28T13:31:22;95370.91;;;3.50;94.55
23363;BME280;11853;48.080;11.960;2023-01-28T13:36:43;95371.94;;;3.48;91.62
23363;BME280;11853;48.080;11.960;2023-01-28T13:39:14;95378.84;;;3.49;91.93
23363;BME280;11853;48.080;11.960;2023-01-28T13:41:54;95375.50;;;3.47;91.50
23363;BME280;11853;48.080;11.960;2023-01-28T13:44:29;95377.22;;;3.33;91.77
23363;BME280;11853;48.080;11.960;2023-01-28T13:49:41;95378.34;;;3.29;90.36
23363;BME280;11853;48.080;11.960;2023-01-28T13:52:12;95377.59;;;3.27;91.91
23363;BME280;11853;48.080;11.960;2023-01-28T14:03:57;95381.16;;;3.26;93.25
23363;BME280;11853;48.080;11.960;2023-01-28T14:15:12;95401.75;;;3.18;93.50
23363;BME280;11853;48.080;11.960;2023-01-28T14:20:31;95406.72;;;3.08;93.35
23363;BME280;11853;48.080;11.960;2023-01-28T14:23:05;95406.81;;;2.92;96.21
23363;BME280;11853;48.080;11.960;2023-01-28T14:31:45;95407.06;;;2.88;96.78
23363;BME280;11853;48.080;11.960;2023-01-28T14:36:55;95415.22;;;2.83;95.18
23363;BME280;11853;48.080;11.960;2023-01-28T14:39:27;95422.50;;;2.78;94.68
23363;BME280;11853;48.080;11.960;2023-01-28T14:41:54;95425.03;;;2.80;94.63
23363;BME280;11853;48.080;11.960;2023-01-28T14:44:33;95428.47;;;2.80;93.95
23363;BME280;11853;48.080;11.960;2023-01-28T14:47:22;95420.09;;;2.75;94.44
23363;BME280;11853;48.080;11.960;2023-01-28T14:57:57;95426.78;;;2.65;94.39
23363;BME280;11853;48.080;11.960;2023-01-28T15:00:27;95435.75;;;2.61;93.25
23363;BME280;11853;48.080;11.960;2023-01-28T15:02:53;95434.63;;;2.65;94.54
23363;BME280;11853;48.080;11.960;2023-01-28T15:05:22;95430.72;;;2.58;94.60
23363;BME280;11853;48.080;11.960;2023-01-28T15:07:48;95434.19;;;2.42;95.11
23363;BME280;11853;48.080;11.960;2023-01-28T15:10:27;95432.81;;;2.51;94.83
23363;BME280;11853;48.080;11.960;2023-01-28T15:12:59;95435.94;;;2.58;95.31
23363;BME280;11853;48.080;11.960;2023-01-28T15:15:36;95436.84;;;2.57;94.81
23363;BME280;11853;48.080;11.960;2023-01-28T15:18:15;95441.34;;;2.55;95.21